Time;durP1;ratioP1;P1;durP2;ratioP2;P2;SDS_P1;SDS_P2;PMS_P1;PMS_P2;Temp;Humidity;BMP_temperature;BMP_pressure;BME280_temperature;BME280_humidity;BME280_pressure;Samples;Min_cycle;Max_cycle;Signal;HPM_P1;HPM_P2
2022/03/23 00:01:24;;;;;;;17.30;14.90;;;;;;;;;;5019442;28;20259;-79
2022/03/23 00:03:52;;;;;;;17.00;15.00;;;;;;;;;;4990930;28;20228;-80
2022/03/23 00:06:17;;;;;;;19.90;15.20;;;;;;;;;;5018264;28;20229;-78
2022/03/23 00:08:44;;;;;;;18.33;15.07;;;;;;;;;;5018315;28;20218;-80
2022/03/23 00:11:12;;;;;;;17.23;14.17;;;;;;;;;;5000875;28;20262;-80
2022/03/23 00:13:38;;;;;;;21.33;14.80;;;;;;;;;;5025027;28;20235;-79
2022/03/23 00:16:04;;;;;;;20.93;16.23;;;;;;;;;;5018714;28;20216;-80
2022/03/23 00:18:32;;;;;;;19.07;16.10;;;;;;;;;;5028314;28;20216;-79
2022/03/23 00:21:00;;;;;;;21.67;14.97;;;;;;;;;;5002463;28;20221;-79
2022/03/23 00:23:29;;;;;;;20.70;15.87;;;;;;;;;;5008632;28;20224;-78
2022/03/23 00:25:59;;;;;;;16.47;14.53;;;;;;;;;;5019230;28;20223;-79
2022/03/23 00:28:29;;;;;;;21.50;15.47;;;;;;;;;;5016891;28;20220;-78
2022/03/23 00:30:55;;;;;;;19.47;14.57;;;;;;;;;;5015994;28;20319;-79
2022/03/23 00:33:21;;;;;;;17.30;14.13;;;;;;;;;;4985114;28;20229;-80
2022/03/23 00:35:48;;;;;;;18.13;14.70;;;;;;;;;;5018898;28;20220;-80
2022/03/23 00:38:14;;;;;;;17.40;13.47;;;;;;;;;;5034822;28;20216;-78
2022/03/23 00:40:39;;;;;;;17.53;14.60;;;;;;;;;;5023244;28;20304;-78
2022/03/23 00:43:07;;;;;;;17.40;14.40;;;;;;;;;;5001665;28;20212;-79
2022/03/23 00:45:33;;;;;;;19.07;14.03;;;;;;;;;;5030957;28;20331;-80
2022/03/23 00:47:58;;;;;;;22.63;15.17;;;;;;;;;;5018836;28;20311;-78
2022/03/23 00:50:24;;;;;;;18.03;15.00;;;;;;;;;;5019296;28;20269;-79
2022/03/23 00:52:50;;;;;;;17.43;14.90;;;;;;;;;;4995039;28;20267;-78
2022/03/23 00:55:18;;;;;;;17.33;14.43;;;;;;;;;;5009624;28;20353;-78
2022/03/23 00:57:44;;;;;;;19.60;15.70;;;;;;;;;;5017007;28;20413;-79
2022/03/23 01:00:13;;;;;;;21.07;15.27;;;;;;;;;;4990802;28;20228;-80
2022/03/23 01:02:42;;;;;;;17.90;15.03;;;;;;;;;;5015817;28;20220;-78
2022/03/23 01:05:08;;;;;;;18.57;15.40;;;;;;;;;;4989017;28;20225;-80
2022/03/23 01:07:36;;;;;;;19.83;15.13;;;;;;;;;;5009559;28;20231;-80
2022/03/23 01:10:03;;;;;;;20.33;14.97;;;;;;;;;;5000072;28;20228;-79
2022/03/23 01:12:29;;;;;;;19.03;14.87;;;;;;;;;;5003919;28;20233;-79
2022/03/23 01:14:57;;;;;;;18.50;15.17;;;;;;;;;;5012414;28;20709;-79
2022/03/23 01:17:23;;;;;;;17.37;15.17;;;;;;;;;;5014434;28;20229;-78
2022/03/23 01:19:49;;;;;;;21.17;16.23;;;;;;;;;;5015416;28;20216;-79
2022/03/23 01:22:19;;;;;;;19.43;16.00;;;;;;;;;;4998972;28;20229;-78
2022/03/23 01:24:44;;;;;;;21.23;15.93;;;;;;;;;;4982984;28;20801;-79
2022/03/23 01:27:10;;;;;;;20.43;15.53;;;;;;;;;;5005542;28;20211;-79
2022/03/23 01:29:35;;;;;;;19.33;16.13;;;;;;;;;;5001660;28;20226;-78
2022/03/23 01:32:07;;;;;;;21.03;15.73;;;;;;;;;;5021718;28;20251;-78
2022/03/23 01:34:33;;;;;;;19.87;15.73;;;;;;;;;;5016833;28;20697;-79
2022/03/23 01:37:01;;;;;;;18.27;14.07;;;;;;;;;;4996083;28;20322;-79
2022/03/23 01:39:29;;;;;;;18.83;15.63;;;;;;;;;;4980739;28;20822;-79
2022/03/23 01:41:57;;;;;;;17.33;15.17;;;;;;;;;;5026513;28;20279;-79
2022/03/23 01:44:23;;;;;;;18.17;14.90;;;;;;;;;;4998785;28;20224;-79
2022/03/23 01:47:03;;;;;;;17.60;13.97;;;;;;;;;;5032011;28;20232;-79
2022/03/23 01:49:31;;;;;;;19.60;15.33;;;;;;;;;;5045948;28;20220;-78
2022/03/23 01:51:57;;;;;;;20.57;15.27;;;;;;;;;;5016201;28;20231;-79
2022/03/23 01:54:24;;;;;;;20.40;14.70;;;;;;;;;;5046995;28;20216;-81
2022/03/23 01:56:50;;;;;;;19.63;15.70;;;;;;;;;;5018487;28;20328;-80
2022/03/23 01:59:22;;;;;;;18.30;15.03;;;;;;;;;;4998489;28;20246;-78
2022/03/23 02:01:50;;;;;;;18.93;15.33;;;;;;;;;;5002874;28;20255;-81
2022/03/23 02:04:16;;;;;;;18.37;14.73;;;;;;;;;;5004221;28;20232;-80
2022/03/23 02:06:41;;;;;;;18.73;14.87;;;;;;;;;;5021730;28;20223;-79
2022/03/23 02:09:10;;;;;;;19.00;16.03;;;;;;;;;;5019555;28;20259;-79
2022/03/23 02:11:37;;;;;;;19.23;15.30;;;;;;;;;;5013703;28;20324;-79
2022/03/23 02:14:05;;;;;;;20.57;15.60;;;;;;;;;;5013650;28;20224;-79
2022/03/23 02:16:44;;;;;;;18.93;16.03;;;;;;;;;;5013758;28;20279;-79
2022/03/23 02:19:10;;;;;;;18.80;15.33;;;;;;;;;;5001609;28;20704;-80
2022/03/23 02:21:45;;;;;;;19.53;15.47;;;;;;;;;;4975101;28;20208;-80
2022/03/23 02:24:14;;;;;;;18.27;16.10;;;;;;;;;;5000506;28;20230;-81
2022/03/23 02:26:40;;;;;;;20.10;16.03;;;;;;;;;;5015323;28;20242;-80
2022/03/23 02:29:05;;;;;;;22.53;17.03;;;;;;;;;;4999610;28;20220;-79
2022/03/23 02:31:38;;;;;;;23.30;16.20;;;;;;;;;;5015642;28;20800;-79
2022/03/23 02:34:07;;;;;;;21.90;16.50;;;;;;;;;;5024999;28;20232;-80
2022/03/23 02:36:35;;;;;;;19.70;15.30;;;;;;;;;;4997691;28;20293;-80
2022/03/23 02:39:03;;;;;;;18.80;15.27;;;;;;;;;;5013453;28;20718;-79
2022/03/23 02:41:28;;;;;;;20.90;16.30;;;;;;;;;;4997170;28;20244;-79
2022/03/23 02:43:56;;;;;;;20.73;16.50;;;;;;;;;;5020669;28;20510;-77
2022/03/23 02:46:25;;;;;;;21.07;15.97;;;;;;;;;;5018716;28;20608;-79
2022/03/23 02:48:54;;;;;;;23.83;16.17;;;;;;;;;;5022308;28;20296;-79
2022/03/23 02:51:21;;;;;;;20.33;16.37;;;;;;;;;;5004770;28;20755;-80
2022/03/23 03:02:44;;;;;;;18.37;15.23;;;;;;;;;;5030379;28;20223;-80
2022/03/23 03:05:12;;;;;;;21.90;16.13;;;;;;;;;;4999498;28;20710;-81
2022/03/23 03:10:23;;;;;;;22.83;17.00;;;;;;;;;;5010000;28;20231;-78
2022/03/23 03:12:49;;;;;;;23.37;16.77;;;;;;;;;;5006453;28;20228;-79
2022/03/23 03:15:15;;;;;;;22.70;16.70;;;;;;;;;;5007038;28;20214;-79
2022/03/23 03:17:41;;;;;;;21.80;16.20;;;;;;;;;;5006922;28;20232;-79
2022/03/23 03:20:09;;;;;;;20.07;16.90;;;;;;;;;;5037194;28;20235;-79
2022/03/23 03:22:40;;;;;;;19.40;16.30;;;;;;;;;;5031416;28;20225;-78
2022/03/23 03:25:07;;;;;;;19.83;17.00;;;;;;;;;;5034027;28;20224;-79
2022/03/23 03:27:35;;;;;;;21.53;16.77;;;;;;;;;;5005529;28;20319;-78
2022/03/23 03:30:07;;;;;;;20.30;16.33;;;;;;;;;;5004504;28;20653;-79
2022/03/23 03:32:35;;;;;;;20.93;16.87;;;;;;;;;;5023388;28;20247;-79
2022/03/23 03:35:08;;;;;;;21.47;16.50;;;;;;;;;;5032377;28;20236;-79
2022/03/23 03:37:37;;;;;;;20.37;16.37;;;;;;;;;;4981981;28;20313;-79
2022/03/23 03:40:03;;;;;;;22.37;16.57;;;;;;;;;;4999683;28;20303;-80
2022/03/23 03:42:29;;;;;;;20.60;16.07;;;;;;;;;;4999776;28;20220;-80
2022/03/23 03:44:55;;;;;;;18.13;15.43;;;;;;;;;;5026383;28;20220;-80
2022/03/23 03:47:20;;;;;;;19.43;15.87;;;;;;;;;;5023980;28;20236;-79
2022/03/23 03:49:48;;;;;;;22.43;15.63;;;;;;;;;;5017813;28;20213;-78
2022/03/23 03:52:13;;;;;;;22.03;16.70;;;;;;;;;;5008500;28;20216;-80
2022/03/23 03:54:41;;;;;;;23.60;15.13;;;;;;;;;;5020175;28;20231;-79
2022/03/23 03:57:07;;;;;;;19.50;15.73;;;;;;;;;;5003407;28;20233;-78
2022/03/23 03:59:36;;;;;;;20.93;16.23;;;;;;;;;;5022148;28;20232;-79
2022/03/23 04:02:02;;;;;;;18.93;16.00;;;;;;;;;;5026618;28;20275;-78
2022/03/23 04:04:28;;;;;;;20.63;15.97;;;;;;;;;;5001060;28;20216;-79
2022/03/23 04:06:53;;;;;;;19.87;16.00;;;;;;;;;;4998339;28;20229;-78
2022/03/23 04:09:19;;;;;;;20.03;15.40;;;;;;;;;;5032772;28;20218;-78
2022/03/23 04:11:44;;;;;;;19.17;15.93;;;;;;;;;;4988518;28;21023;-78
2022/03/23 04:14:12;;;;;;;20.43;16.50;;;;;;;;;;4993492;28;20220;-80
2022/03/23 04:16:40;;;;;;;20.20;15.73;;;;;;;;;;5020772;28;20223;-79
2022/03/23 04:19:09;;;;;;;21.13;16.77;;;;;;;;;;5003608;28;20269;-80
2022/03/23 04:21:39;;;;;;;21.57;16.37;;;;;;;;;;5026000;28;20244;-78
2022/03/23 04:24:05;;;;;;;23.13;17.53;;;;;;;;;;5024380;28;20228;-79
2022/03/23 04:26:35;;;;;;;21.30;17.20;;;;;;;;;;5057740;28;20287;-77
2022/03/23 04:29:01;;;;;;;21.80;16.93;;;;;;;;;;5033170;28;20232;-77
2022/03/23 04:31:29;;;;;;;22.47;17.30;;;;;;;;;;5040910;28;20354;-78
2022/03/23 04:33:59;;;;;;;21.80;16.40;;;;;;;;;;5024811;28;20228;-79
2022/03/23 04:36:25;;;;;;;22.67;17.07;;;;;;;;;;5035410;28;20212;-78
2022/03/23 04:38:50;;;;;;;23.60;17.23;;;;;;;;;;5036339;28;20736;-77
2022/03/23 04:41:16;;;;;;;20.00;16.67;;;;;;;;;;5049999;28;20680;-78
2022/03/23 04:43:44;;;;;;;25.37;17.73;;;;;;;;;;5022337;28;20216;-79
2022/03/23 04:46:12;;;;;;;22.67;16.93;;;;;;;;;;5009401;28;20566;-78
2022/03/23 04:48:41;;;;;;;24.37;18.00;;;;;;;;;;5045415;28;20224;-77
2022/03/23 04:51:06;;;;;;;21.87;17.87;;;;;;;;;;5015123;28;20239;-77
2022/03/23 04:53:32;;;;;;;22.70;17.27;;;;;;;;;;5026243;28;20229;-80
2022/03/23 04:56:03;;;;;;;23.67;19.70;;;;;;;;;;4976096;28;20221;-78
2022/03/23 04:58:31;;;;;;;21.67;16.80;;;;;;;;;;5027712;28;20213;-80
2022/03/23 05:00:58;;;;;;;22.27;18.23;;;;;;;;;;5020588;28;20217;-78
2022/03/23 05:03:25;;;;;;;25.43;20.93;;;;;;;;;;5019921;28;20228;-79
2022/03/23 05:05:53;;;;;;;23.93;20.00;;;;;;;;;;5003880;28;20224;-80
2022/03/23 05:08:23;;;;;;;23.70;21.13;;;;;;;;;;5023068;28;20217;-80
2022/03/23 05:10:49;;;;;;;25.77;21.00;;;;;;;;;;5013238;28;20220;-81
2022/03/23 05:13:17;;;;;;;28.13;19.87;;;;;;;;;;5038444;28;20232;-79
2022/03/23 05:15:43;;;;;;;22.30;18.57;;;;;;;;;;4996144;28;20231;-81
2022/03/23 05:18:11;;;;;;;22.43;18.07;;;;;;;;;;5025807;28;20277;-80
2022/03/23 05:20:36;;;;;;;21.83;17.53;;;;;;;;;;5023828;28;20228;-79
2022/03/23 05:23:02;;;;;;;23.27;18.37;;;;;;;;;;5027587;28;20238;-80
2022/03/23 05:25:30;;;;;;;24.90;18.53;;;;;;;;;;5018508;28;20227;-80
2022/03/23 05:28:00;;;;;;;21.20;17.83;;;;;;;;;;5028807;28;20222;-80
2022/03/23 05:30:26;;;;;;;22.53;18.03;;;;;;;;;;5002450;28;20741;-79
2022/03/23 05:32:51;;;;;;;21.27;16.97;;;;;;;;;;5015008;28;20227;-81
2022/03/23 05:35:22;;;;;;;21.53;17.10;;;;;;;;;;5014278;28;20223;-79
2022/03/23 05:37:47;;;;;;;21.27;17.10;;;;;;;;;;5046992;28;20221;-80
2022/03/23 05:40:13;;;;;;;22.53;16.77;;;;;;;;;;5044796;28;20231;-81
2022/03/23 05:42:41;;;;;;;20.43;17.17;;;;;;;;;;5019162;28;20219;-79
2022/03/23 05:45:09;;;;;;;22.17;17.57;;;;;;;;;;5016774;28;20220;-81
2022/03/23 05:47:40;;;;;;;22.13;17.47;;;;;;;;;;5010419;28;20285;-80
2022/03/23 05:50:09;;;;;;;23.10;16.57;;;;;;;;;;5030361;28;20656;-80
2022/03/23 05:52:38;;;;;;;20.63;16.93;;;;;;;;;;4994098;28;20320;-80
2022/03/23 05:55:08;;;;;;;22.20;17.03;;;;;;;;;;4986977;28;20243;-82
2022/03/23 05:57:37;;;;;;;19.47;15.67;;;;;;;;;;4985885;28;20224;-81
2022/03/23 06:00:05;;;;;;;19.70;15.97;;;;;;;;;;5006451;28;20229;-79
2022/03/23 06:02:41;;;;;;;20.20;16.67;;;;;;;;;;5006806;28;20220;-80
2022/03/23 06:05:08;;;;;;;19.13;15.70;;;;;;;;;;4984907;28;20227;-81
2022/03/23 06:07:36;;;;;;;19.37;15.77;;;;;;;;;;5043912;28;20712;-80
2022/03/23 06:10:07;;;;;;;20.77;16.57;;;;;;;;;;5017224;28;20246;-79
2022/03/23 06:12:32;;;;;;;22.00;17.00;;;;;;;;;;5024317;28;20229;-79
2022/03/23 06:14:58;;;;;;;21.00;16.50;;;;;;;;;;5016219;28;20724;-80
2022/03/23 06:17:24;;;;;;;22.17;15.43;;;;;;;;;;5018968;28;20316;-79
2022/03/23 06:19:52;;;;;;;21.37;17.80;;;;;;;;;;5025331;28;20217;-80
2022/03/23 06:22:18;;;;;;;21.50;17.70;;;;;;;;;;5015586;28;20300;-81
2022/03/23 06:24:44;;;;;;;23.07;16.37;;;;;;;;;;5034662;28;20219;-81
2022/03/23 06:27:30;;;;;;;22.17;16.13;;;;;;;;;;5008116;28;20230;-80
2022/03/23 06:29:58;;;;;;;23.20;17.63;;;;;;;;;;5029932;28;20231;-81
2022/03/23 06:32:24;;;;;;;20.20;16.47;;;;;;;;;;5031267;28;20228;-80
2022/03/23 06:34:49;;;;;;;19.30;16.43;;;;;;;;;;5033929;28;20241;-79
2022/03/23 06:37:15;;;;;;;23.37;17.40;;;;;;;;;;5006337;28;20231;-80
2022/03/23 06:39:41;;;;;;;19.73;16.17;;;;;;;;;;5000769;28;20317;-80
2022/03/23 06:42:09;;;;;;;19.37;16.43;;;;;;;;;;5010899;28;20299;-80
2022/03/23 06:44:35;;;;;;;21.07;16.63;;;;;;;;;;5028695;28;20671;-80
2022/03/23 06:47:00;;;;;;;18.83;15.40;;;;;;;;;;5010495;28;20239;-80
2022/03/23 06:49:26;;;;;;;19.20;15.90;;;;;;;;;;5031459;28;20691;-79
2022/03/23 06:51:53;;;;;;;23.87;16.00;;;;;;;;;;4990613;28;20232;-79
2022/03/23 06:54:19;;;;;;;18.70;16.23;;;;;;;;;;5023921;28;20303;-81
2022/03/23 06:56:51;;;;;;;20.47;15.77;;;;;;;;;;5017632;28;20212;-79
2022/03/23 06:59:19;;;;;;;18.37;15.90;;;;;;;;;;5028955;28;20780;-81
2022/03/23 07:01:49;;;;;;;21.83;16.40;;;;;;;;;;5000083;28;20228;-81
2022/03/23 07:04:19;;;;;;;18.77;16.27;;;;;;;;;;5037498;28;20227;-81
2022/03/23 07:06:47;;;;;;;20.40;16.87;;;;;;;;;;4976716;28;20224;-80
2022/03/23 07:12:20;;;;;;;19.87;16.97;;;;;;;;;;4912448;28;20226;-79
2022/03/23 07:14:48;;;;;;;22.83;16.70;;;;;;;;;;4921387;29;20218;-81
2022/03/23 07:17:13;;;;;;;19.73;16.73;;;;;;;;;;4962903;28;20212;-80
2022/03/23 07:19:39;;;;;;;19.63;17.10;;;;;;;;;;5018919;28;20216;-79
2022/03/23 07:22:11;;;;;;;19.87;16.73;;;;;;;;;;5016307;28;20445;-80
2022/03/23 07:25:39;;;;;;;19.20;17.07;;;;;;;;;;5003231;28;20219;-78
2022/03/23 07:28:31;;;;;;;21.53;16.43;;;;;;;;;;5024702;28;20230;-79
2022/03/23 07:30:58;;;;;;;19.50;16.20;;;;;;;;;;5030492;28;20259;-80
2022/03/23 07:33:28;;;;;;;19.50;17.40;;;;;;;;;;5020428;28;20641;-79
2022/03/23 07:35:54;;;;;;;19.67;17.43;;;;;;;;;;5021131;28;20262;-81
2022/03/23 07:38:20;;;;;;;26.67;18.83;;;;;;;;;;5033384;28;20220;-79
2022/03/23 07:40:47;;;;;;;24.23;17.90;;;;;;;;;;5017790;28;20241;-79
2022/03/23 07:43:16;;;;;;;21.70;16.57;;;;;;;;;;5045608;28;20240;-79
2022/03/23 07:45:41;;;;;;;20.57;14.87;;;;;;;;;;5011133;28;20232;-78
2022/03/23 07:48:07;;;;;;;18.70;14.70;;;;;;;;;;5036811;28;20236;-77
2022/03/23 07:50:33;;;;;;;19.60;14.80;;;;;;;;;;5050352;28;20236;-78
2022/03/23 07:53:01;;;;;;;17.80;14.23;;;;;;;;;;5004275;28;20232;-78
2022/03/23 07:55:26;;;;;;;17.67;14.47;;;;;;;;;;5033239;28;20223;-77
2022/03/23 07:57:56;;;;;;;17.83;14.30;;;;;;;;;;5011941;28;20219;-79
2022/03/23 08:00:22;;;;;;;15.77;13.23;;;;;;;;;;5030370;28;21422;-78
2022/03/23 08:02:50;;;;;;;16.93;13.57;;;;;;;;;;5023926;28;20215;-78
2022/03/23 08:05:16;;;;;;;17.10;13.57;;;;;;;;;;5035167;28;20219;-78
2022/03/23 08:07:41;;;;;;;16.57;13.40;;;;;;;;;;5024611;28;20216;-78
2022/03/23 08:10:11;;;;;;;16.27;13.40;;;;;;;;;;5044507;28;20230;-78
2022/03/23 08:12:37;;;;;;;17.60;13.43;;;;;;;;;;5023687;28;20234;-80
2022/03/23 08:15:05;;;;;;;18.23;13.83;;;;;;;;;;5053193;28;20709;-82
2022/03/23 08:17:39;;;;;;;15.57;12.87;;;;;;;;;;5041584;28;20597;-82
2022/03/23 08:23:02;;;;;;;16.63;12.93;;;;;;;;;;5033594;28;20224;-79
2022/03/23 08:25:30;;;;;;;15.23;13.23;;;;;;;;;;4999856;28;20224;-78
2022/03/23 08:27:58;;;;;;;16.83;12.80;;;;;;;;;;4982271;28;20695;-80
2022/03/23 08:30:49;;;;;;;16.20;12.67;;;;;;;;;;5036003;28;20290;-78
2022/03/23 08:33:19;;;;;;;16.80;13.10;;;;;;;;;;5028886;28;20236;-81
2022/03/23 08:35:44;;;;;;;14.73;12.13;;;;;;;;;;5023274;28;20284;-80
2022/03/23 08:38:12;;;;;;;14.33;11.63;;;;;;;;;;5002990;28;20700;-79
2022/03/23 08:40:37;;;;;;;13.67;11.03;;;;;;;;;;5023820;28;20865;-79
2022/03/23 08:43:05;;;;;;;12.43;10.70;;;;;;;;;;5001413;28;20227;-80
2022/03/23 08:45:30;;;;;;;12.10;10.80;;;;;;;;;;5019083;28;20667;-80
2022/03/23 08:48:02;;;;;;;13.77;10.90;;;;;;;;;;5027188;28;20224;-80
2022/03/23 08:50:28;;;;;;;12.60;10.40;;;;;;;;;;5042838;28;20231;-80
2022/03/23 08:52:53;;;;;;;12.70;10.27;;;;;;;;;;5027120;28;20233;-81
2022/03/23 08:55:23;;;;;;;12.27;11.00;;;;;;;;;;5022385;28;20287;-79
2022/03/23 08:57:51;;;;;;;11.67;10.13;;;;;;;;;;5032596;28;20243;-79
2022/03/23 09:00:17;;;;;;;11.77;9.93;;;;;;;;;;5020518;28;20311;-79
2022/03/23 09:02:42;;;;;;;11.57;10.17;;;;;;;;;;5039414;28;20231;-78
2022/03/23 09:05:10;;;;;;;11.00;9.80;;;;;;;;;;5039794;28;20233;-78
2022/03/23 09:07:38;;;;;;;10.80;9.80;;;;;;;;;;5034179;28;20233;-78
2022/03/23 09:10:05;;;;;;;11.37;9.53;;;;;;;;;;5014417;28;20224;-78
2022/03/23 09:12:33;;;;;;;11.03;8.90;;;;;;;;;;5013434;28;20306;-78
2022/03/23 09:15:01;;;;;;;10.70;9.43;;;;;;;;;;4996406;28;20228;-78
2022/03/23 09:17:29;;;;;;;10.67;9.53;;;;;;;;;;5005827;28;20633;-80
2022/03/23 09:19:55;;;;;;;11.47;9.67;;;;;;;;;;5029765;28;20224;-81
2022/03/23 09:22:21;;;;;;;10.77;9.10;;;;;;;;;;5019846;28;20729;-78
2022/03/23 09:24:49;;;;;;;10.47;9.37;;;;;;;;;;5024996;28;20225;-79
2022/03/23 09:27:15;;;;;;;10.67;9.63;;;;;;;;;;5028034;28;20241;-78
2022/03/23 09:29:40;;;;;;;10.47;9.37;;;;;;;;;;5031792;28;20475;-79
2022/03/23 09:32:10;;;;;;;10.47;9.37;;;;;;;;;;5024681;28;20263;-78
2022/03/23 09:34:36;;;;;;;10.73;9.63;;;;;;;;;;5009644;28;20231;-80
2022/03/23 09:39:47;;;;;;;10.40;9.40;;;;;;;;;;5021978;28;20310;-78
2022/03/23 09:42:18;;;;;;;10.07;9.02;;;;;;;;;;5021880;28;20219;-78
2022/03/23 09:44:47;;;;;;;10.95;9.50;;;;;;;;;;5030582;28;20228;-79
2022/03/23 09:47:17;;;;;;;11.38;9.07;;;;;;;;;;5014013;28;20228;-78
2022/03/23 09:49:43;;;;;;;10.00;9.00;;;;;;;;;;5006933;28;20228;-78
2022/03/23 09:52:13;;;;;;;10.88;9.80;;;;;;;;;;5028728;28;20228;-77
2022/03/23 09:54:38;;;;;;;9.77;8.88;;;;;;;;;;5017113;28;20253;-78
2022/03/23 09:57:06;;;;;;;9.98;8.90;;;;;;;;;;5035337;28;20695;-80
2022/03/23 09:59:33;;;;;;;10.20;9.20;;;;;;;;;;5035594;28;20299;-79
2022/03/23 10:02:00;;;;;;;10.45;9.05;;;;;;;;;;5030077;28;20601;-78
2022/03/23 10:05:16;;;;;;;10.03;8.87;;;;;;;;;;5015538;28;20304;-79
2022/03/23 10:08:10;;;;;;;9.88;8.63;;;;;;;;;;5019900;28;20224;-80
2022/03/23 10:11:13;;;;;;;11.07;9.35;;;;;;;;;;5032370;28;20220;-79
2022/03/23 10:14:27;;;;;;;11.10;9.00;;;;;;;;;;5032976;28;20259;-79
2022/03/23 10:17:24;;;;;;;9.82;8.65;;;;;;;;;;5033648;28;20220;-79
2022/03/23 10:19:52;;;;;;;10.45;9.20;;;;;;;;;;5040150;28;20315;-78
2022/03/23 10:22:17;;;;;;;10.55;9.55;;;;;;;;;;5029789;28;20301;-78
2022/03/23 10:24:45;;;;;;;12.32;8.93;;;;;;;;;;5008199;28;20220;-79
2022/03/23 10:27:17;;;;;;;10.18;8.73;;;;;;;;;;5005996;28;20291;-78
2022/03/23 10:29:49;;;;;;;10.70;8.63;;;;;;;;;;5004810;28;20220;-79
2022/03/23 10:32:20;;;;;;;9.68;8.70;;;;;;;;;;4996533;28;20648;-78
2022/03/23 10:34:49;;;;;;;10.48;9.38;;;;;;;;;;5024400;28;20648;-77
2022/03/23 10:37:20;;;;;;;9.63;8.73;;;;;;;;;;5028115;28;20224;-77
2022/03/23 10:39:47;;;;;;;9.60;8.70;;;;;;;;;;5023742;28;20216;-77
2022/03/23 10:42:17;;;;;;;10.13;9.13;;;;;;;;;;4996285;28;20212;-78
2022/03/23 10:44:45;;;;;;;10.25;9.20;;;;;;;;;;5005811;28;20285;-78
2022/03/23 10:47:31;;;;;;;11.63;9.10;;;;;;;;;;5015987;28;20218;-79
2022/03/23 10:50:13;;;;;;;10.15;8.88;;;;;;;;;;5053346;28;20223;-78
2022/03/23 10:52:55;;;;;;;11.00;9.38;;;;;;;;;;4998076;28;20228;-78
2022/03/23 10:55:30;;;;;;;13.45;9.82;;;;;;;;;;5033586;28;20235;-79
2022/03/23 10:57:58;;;;;;;9.77;8.77;;;;;;;;;;5020077;28;20231;-79
2022/03/23 11:00:38;;;;;;;12.73;8.98;;;;;;;;;;5037876;28;20215;-78
2022/03/23 11:03:09;;;;;;;9.45;8.40;;;;;;;;;;5038337;28;20231;-78
2022/03/23 11:05:46;;;;;;;10.15;9.15;;;;;;;;;;5042125;28;20223;-79
2022/03/23 11:08:21;;;;;;;10.70;9.40;;;;;;;;;;5036430;28;20224;-79
2022/03/23 11:16:45;;;;;;;10.20;9.20;;;;;;;;;;4993283;28;20229;-79
2022/03/23 11:19:11;;;;;;;10.02;9.02;;;;;;;;;;5013270;28;20219;-79
2022/03/23 11:22:12;;;;;;;11.07;9.90;;;;;;;;;;5030581;28;20371;-77
2022/03/23 11:24:45;;;;;;;10.27;9.27;;;;;;;;;;5020388;28;20232;-76
2022/03/23 11:27:17;;;;;;;11.13;9.32;;;;;;;;;;5020715;28;20763;-78
2022/03/23 11:29:46;;;;;;;10.35;9.25;;;;;;;;;;5033978;28;20217;-80
2022/03/23 11:32:12;;;;;;;11.50;9.68;;;;;;;;;;5002433;28;20222;-79
2022/03/23 11:34:38;;;;;;;11.50;9.43;;;;;;;;;;5020030;28;20270;-79
2022/03/23 11:37:05;;;;;;;10.50;9.48;;;;;;;;;;5003542;28;20217;-79
2022/03/23 11:39:31;;;;;;;10.60;9.60;;;;;;;;;;4998925;28;20227;-76
2022/03/23 11:42:31;;;;;;;10.80;9.07;;;;;;;;;;5026235;23;20243;-78
2022/03/23 11:44:56;;;;;;;14.27;9.63;;;;;;;;;;5029952;28;20232;-76
2022/03/23 11:47:43;;;;;;;9.85;8.85;;;;;;;;;;5020290;28;20219;-78
2022/03/23 11:53:34;;;;;;;10.13;9.13;;;;;;;;;;5131041;23;20631;-77
2022/03/23 11:56:35;;;;;;;13.52;9.70;;;;;;;;;;4977188;28;20245;-77
2022/03/23 11:59:37;;;;;;;11.48;10.27;;;;;;;;;;4995651;28;20224;-79
2022/03/23 12:02:03;;;;;;;11.02;9.93;;;;;;;;;;5008488;28;20228;-77
2022/03/23 12:04:31;;;;;;;10.85;9.85;;;;;;;;;;4998871;28;20258;-76
2022/03/23 12:07:04;;;;;;;11.43;10.20;;;;;;;;;;5024640;28;20209;-76
2022/03/23 12:09:36;;;;;;;10.90;9.60;;;;;;;;;;5005073;28;20229;-75
2022/03/23 12:12:03;;;;;;;10.65;9.60;;;;;;;;;;5003327;28;20232;-76
2022/03/23 12:14:34;;;;;;;10.95;9.85;;;;;;;;;;4979164;28;20209;-75
2022/03/23 12:17:05;;;;;;;11.38;10.25;;;;;;;;;;5005012;28;20225;-75
2022/03/23 12:19:50;;;;;;;11.02;9.93;;;;;;;;;;5006279;28;20227;-76
2022/03/23 12:22:46;;;;;;;12.30;10.45;;;;;;;;;;5000850;28;20235;-76
2022/03/23 12:25:20;;;;;;;10.55;9.45;;;;;;;;;;4996133;28;20498;-76
2022/03/23 12:27:46;;;;;;;10.18;9.18;;;;;;;;;;5000476;28;20225;-77
2022/03/23 12:30:27;;;;;;;9.13;8.30;;;;;;;;;;4998745;28;20835;-77
2022/03/23 12:32:58;;;;;;;8.85;8.05;;;;;;;;;;5013762;28;20251;-76
2022/03/23 12:35:30;;;;;;;10.07;9.07;;;;;;;;;;4991007;28;20235;-77
2022/03/23 12:37:56;;;;;;;9.20;8.30;;;;;;;;;;5009382;28;20218;-76
2022/03/23 12:40:23;;;;;;;8.90;8.00;;;;;;;;;;5018351;28;20225;-77
2022/03/23 12:42:49;;;;;;;8.95;8.13;;;;;;;;;;4984443;28;20229;-76
2022/03/23 12:45:31;;;;;;;12.90;8.52;;;;;;;;;;5005622;28;20221;-76
2022/03/23 12:47:58;;;;;;;9.05;8.15;;;;;;;;;;5005523;28;20235;-76
2022/03/23 12:59:17;;;;;;;7.50;6.78;;;;;;;;;;5010875;28;20244;-76
2022/03/23 13:01:50;;;;;;;8.00;7.20;;;;;;;;;;4987444;28;20728;-76
2022/03/23 13:04:40;;;;;;;8.55;7.72;;;;;;;;;;4972559;28;20252;-75
2022/03/23 13:07:27;;;;;;;9.48;7.97;;;;;;;;;;5008311;28;20230;-77
2022/03/23 13:13:17;;;;;;;8.40;7.13;;;;;;;;;;5012440;28;20231;-78
2022/03/23 13:15:42;;;;;;;8.68;7.88;;;;;;;;;;4987302;28;20384;-78
2022/03/23 13:18:10;;;;;;;8.13;7.28;;;;;;;;;;5004156;28;20242;-78
2022/03/23 13:20:38;;;;;;;9.65;7.85;;;;;;;;;;5018724;28;20303;-81
2022/03/23 13:23:14;;;;;;;7.95;7.22;;;;;;;;;;4975408;28;20249;-79
2022/03/23 13:25:42;;;;;;;8.75;7.95;;;;;;;;;;4990940;28;20244;-80
2022/03/23 13:28:13;;;;;;;10.82;8.68;;;;;;;;;;4973361;28;20244;-79
2022/03/23 13:30:40;;;;;;;8.95;8.05;;;;;;;;;;4997611;28;20236;-80
2022/03/23 13:33:09;;;;;;;9.00;8.10;;;;;;;;;;4985673;28;20568;-80
2022/03/23 13:36:24;;;;;;;11.38;8.07;;;;;;;;;;4974230;28;20230;-80
2022/03/23 13:38:53;;;;;;;8.50;7.60;;;;;;;;;;4980174;28;20221;-79
2022/03/23 13:44:15;;;;;;;9.57;8.68;;;;;;;;;;5002206;28;20297;-78
2022/03/23 13:46:42;;;;;;;13.85;9.25;;;;;;;;;;4956480;28;20221;-80
2022/03/23 13:49:14;;;;;;;11.88;8.85;;;;;;;;;;4997620;28;20228;-78
2022/03/23 13:52:00;;;;;;;9.35;8.45;;;;;;;;;;4992398;28;20229;-81
2022/03/23 13:55:01;;;;;;;8.85;7.95;;;;;;;;;;5012359;28;20224;-79
2022/03/23 13:57:52;;;;;;;9.32;8.23;;;;;;;;;;4979033;28;20704;-80
2022/03/23 14:00:25;;;;;;;9.45;8.38;;;;;;;;;;5007016;28;20859;-82
2022/03/23 14:02:53;;;;;;;9.05;8.15;;;;;;;;;;4982821;28;20217;-80
2022/03/23 14:08:41;;;;;;;10.13;7.80;;;;;;;;;;4969801;28;20220;-79
2022/03/23 14:11:10;;;;;;;10.15;8.20;;;;;;;;;;4981934;28;20264;-79
2022/03/23 14:13:40;;;;;;;9.35;8.45;;;;;;;;;;4997652;28;20567;-81
2022/03/23 14:16:08;;;;;;;9.15;8.23;;;;;;;;;;5019196;28;20217;-79
2022/03/23 14:18:36;;;;;;;9.43;8.38;;;;;;;;;;5003282;28;20304;-81
2022/03/23 14:21:03;;;;;;;11.77;8.70;;;;;;;;;;4995247;28;20236;-78
2022/03/23 14:23:38;;;;;;;11.25;8.55;;;;;;;;;;4967287;28;20263;-80
2022/03/23 14:26:25;;;;;;;9.52;8.52;;;;;;;;;;4988152;28;20225;-80
2022/03/23 14:28:53;;;;;;;10.48;8.40;;;;;;;;;;4997114;28;20236;-78
2022/03/23 14:31:22;;;;;;;9.52;8.18;;;;;;;;;;4988460;28;20228;-79
2022/03/23 14:33:54;;;;;;;9.07;8.25;;;;;;;;;;4995883;28;20796;-80
2022/03/23 14:36:26;;;;;;;10.15;8.10;;;;;;;;;;4995037;28;20305;-81
2022/03/23 14:38:51;;;;;;;10.15;8.85;;;;;;;;;;4986649;28;20276;-79
2022/03/23 14:41:20;;;;;;;16.73;9.43;;;;;;;;;;4984220;28;20225;-79
2022/03/23 14:43:48;;;;;;;10.85;9.75;;;;;;;;;;4994514;28;20228;-80
2022/03/23 14:46:23;;;;;;;11.00;9.23;;;;;;;;;;4985801;28;20227;-81
2022/03/23 14:49:07;;;;;;;10.18;8.77;;;;;;;;;;4993014;28;20699;-79
2022/03/23 14:51:40;;;;;;;9.77;8.77;;;;;;;;;;5009076;28;20299;-80
2022/03/23 14:54:09;;;;;;;9.65;8.57;;;;;;;;;;4972826;28;20320;-80
2022/03/23 14:56:38;;;;;;;10.25;8.68;;;;;;;;;;4990389;28;20229;-81
2022/03/23 14:59:08;;;;;;;11.05;8.98;;;;;;;;;;4998937;28;20229;-80
2022/03/23 15:01:37;;;;;;;10.82;9.25;;;;;;;;;;4971343;28;20238;-79
2022/03/23 15:04:05;;;;;;;10.55;9.30;;;;;;;;;;4982916;28;20657;-79
2022/03/23 15:14:48;;;;;;;12.30;9.65;;;;;;;;;;4980187;28;20216;-80
2022/03/23 15:17:16;;;;;;;11.50;9.20;;;;;;;;;;4974235;28;20291;-78
2022/03/23 15:19:41;;;;;;;15.27;9.52;;;;;;;;;;5002886;28;20308;-81
2022/03/23 15:22:13;;;;;;;14.80;10.07;;;;;;;;;;5008091;28;20730;-82
2022/03/23 15:24:39;;;;;;;11.13;9.98;;;;;;;;;;4964434;28;20255;-80
2022/03/23 15:27:08;;;;;;;11.38;9.63;;;;;;;;;;4984065;28;20283;-81
2022/03/23 15:29:34;;;;;;;14.25;9.10;;;;;;;;;;4993605;28;20219;-80
2022/03/23 15:31:59;;;;;;;12.10;8.75;;;;;;;;;;5013239;28;20332;-79
2022/03/23 15:34:27;;;;;;;13.18;9.50;;;;;;;;;;4990636;28;20228;-80
2022/03/23 15:36:55;;;;;;;12.75;9.55;;;;;;;;;;4984449;28;20310;-79